Dinsmore, Texas
Current Conditions -  °F | °C
As of 5:35 PM on Thursday 18 Dec 2014 (Local Time) from KARM Reporting Station
Overcast Overcast  
Wind Chill: 67°   Ceiling: 1900
Heat Index: 67°   Visibility: 10mi
Dew Point: 64°   Wind: 6mph
Humidity: 88%   Direction: 360°N
Pressure: 30.03"   Gusts: NA
Location:  29.2926°N, 96.034°W
Report Text: KARM 182335Z AUTO 36005KT 10SM BKN019 OVC026 20/18 A3003 RMK AO2 T01960176
Loading
Personal Weather Stations






























Interactive Weather Map New forecast layout! Learn more

10-Day Weather Forecast

Advertisements
Track Severe Weather on mobile